Latest Weather Observations for Sydney Airport

IDN60801

Issued at 8:02 am EDT Monday 27 February 2017 (issued every 30 minutes, with the page automatically refreshed every 10 minutes)

About weather observations | Map of weather stations | Latest weather observations for NSW | Other Formats
Station Details ID: 066037 Name: SYDNEY AIRPORT AMO Lat: -33.95 Lon: 151.17 Height: 6.0 m
Data from the previous 72 hours. | See also: Recent months at Sydney Airport
Date/Time
EDT
Temp
°C
App
Temp
°C
Dew
Point
°C
Rel
Hum
%
Delta-T
°C
Wind Press
QNH
hPa
Press
MSL
hPa
Rain since
9am
mm
Dir  Spd
km/h
Gust
km/h
Spd
kts
Gust
kts
27/07:30am 22.0 20.0 16.5 71 3.3 SE 22 28 12 15 1023.2 1023.2 12.8
27/07:00am 22.0 20.9 17.4 75 2.8 ESE 19 26 10 14 1022.9 1022.9 12.8
27/06:30am 21.3 19.8 16.7 75 2.8 ESE 20 28 11 15 1022.6 1022.6 12.8
27/06:00am 21.3 19.2 17.1 77 2.6 ESE 24 32 13 17 1022.3 1022.3 12.8
27/05:30am 21.3 19.5 16.9 76 2.7 ESE 22 30 12 16 1022.2 1022.2 12.8
27/05:00am 21.1 18.1 16.9 77 2.5 ESE 28 33 15 18 1021.8 1021.8 12.8
27/04:30am 21.5 18.5 16.9 75 2.8 ESE 28 35 15 19 1021.7 1021.7 12.8
27/04:00am 21.3 18.7 16.9 76 2.7 ESE 26 35 14 19 1021.8 1021.8 12.8
27/03:30am 21.1 18.7 17.3 79 2.3 ESE 26 35 14 19 1021.9 1021.9 12.8
27/03:00am 21.2 18.4 17.4 79 2.3 ESE 28 37 15 20 1021.9 1021.9 12.8
27/02:30am 21.0 18.8 18.8 87 1.4 ESE 28 35 15 19 1022.1 1022.1 12.8
27/02:11am 19.3 19.3 19.0 98 0.2 S 17 32 9 17 1022.2 1022.2 12.8
27/02:00am 19.2 16.8 19.0 99 0.1 SSW 30 39 16 21 1022.0 1022.0 12.8
27/01:56am 19.0 15.9 18.8 99 0.1 SSW 33 41 18 22 1022.0 1022.0 12.8
27/01:48am 19.3 15.6 19.1 99 0.1 SW 37 44 20 24 1022.1 1022.1 12.8
27/01:44am 19.3 16.5 19.1 99 0.1 SSW 32 44 17 24 1021.9 1021.9 12.6
27/01:36am 19.2 17.0 18.7 97 0.3 SSW 28 35 15 19 1022.1 1022.1 8.8
27/01:30am 19.2 17.8 18.9 98 0.2 SSW 24 35 13 19 1022.3 1022.3 7.4
27/01:22am 19.1 17.3 18.8 98 0.2 SSW 26 35 14 19 1022.4 1022.4 7.2
27/01:14am 18.8 16.5 18.5 98 0.2 SSW 28 32 15 17 1022.3 1022.3 6.8
27/01:00am 18.9 16.6 18.4 97 0.3 SSW 28 33 15 18 1022.5 1022.5 6.6
27/12:48am 18.7 15.9 18.2 97 0.3 SSW 30 35 16 19 1022.5 1022.5 6.6
27/12:38am 19.1 16.8 18.4 96 0.4 SSW 28 39 15 21 1022.4 1022.4 5.6
27/12:30am 19.0 17.0 18.3 96 0.4 SSW 26 30 14 16 1022.6 1022.6 5.6
27/12:00am 18.5 16.3 17.9 96 0.4 SW 26 30 14 16 1022.6 1022.6 5.6
 
Date/Time
EDT
Temp
°C
App
Temp
°C
Dew
Point
°C
Rel
Hum
%
Delta-T
°C
Wind Press
QNH
hPa
Press
MSL
hPa
Rain since
9am
mm
Dir  Spd
km/h
Gust
km/h
Spd
kts
Gust
kts
26/11:48pm 18.7 18.4 18.2 97 0.3 SSW 17 30 9 16 1022.8 1022.8 5.6
26/11:41pm 18.9 19.5 18.6 98 0.2 S 13 17 7 9 1023.0 1023.0 5.4
26/11:30pm 18.8 17.9 18.1 96 0.4 SSW 20 30 11 16 1023.4 1023.4 3.8
26/11:21pm 19.1 17.1 18.3 95 0.5 SSW 26 35 14 19 1023.1 1023.1 1.2
26/11:09pm 19.3 16.5 18.3 94 0.6 SSW 30 39 16 21 1023.0 1023.0 0.8
26/11:00pm 19.5 16.4 18.3 93 0.7 SSW 32 39 17 21 1022.9 1022.9 0.6
26/10:51pm 19.6 16.2 17.7 89 1.2 SSW 32 37 17 20 1022.8 1022.8 0.2
26/10:46pm 20.2 16.9 18.0 87 1.4 SSW 32 43 17 23 1022.9 1022.9 0.2
26/10:36pm 20.2 16.6 17.2 83 1.8 SSW 32 50 17 27 1023.0 1023.0 0.2
26/10:30pm 20.5 16.8 17.5 83 1.8 SSW 33 43 18 23 1023.0 1023.0 0.2
26/10:00pm 21.0 17.5 17.8 82 2.0 S 33 41 18 22 1023.0 1023.0 0.2
26/09:30pm 21.3 17.4 16.9 76 2.7 S 33 39 18 21 1022.8 1022.8 0.2
26/09:00pm 20.5 17.0 17.5 83 1.8 SSE 32 41 17 22 1022.6 1022.6 0.2
26/08:30pm 22.1 18.2 16.4 70 3.5 S 32 37 17 20 1022.2 1022.2 0.2
26/08:00pm 22.1 17.9 15.7 67 3.8 S 32 39 17 21 1022.0 1022.0 0.2
26/07:30pm 22.1 17.3 15.5 66 3.9 S 35 43 19 23 1021.8 1021.8 0.2
26/07:00pm 22.3 17.8 15.4 65 4.1 S 33 39 18 21 1021.7 1021.7 0.2
26/06:30pm 22.3 18.3 16.1 68 3.7 S 32 41 17 22 1021.5 1021.5 0.2
26/06:00pm 22.2 17.9 15.5 66 4.0 S 32 41 17 22 1021.4 1021.4 0.2
26/05:30pm 22.4 18.1 15.3 64 4.2 S 32 41 17 22 1021.5 1021.5 0.2
26/05:00pm 22.6 18.2 15.2 63 4.4 S 32 37 17 20 1021.3 1021.3 0.2
26/04:30pm 22.8 18.0 14.6 60 4.8 S 33 43 18 23 1021.3 1021.3 0.2
26/04:00pm 23.1 18.4 14.9 60 4.9 S 33 41 18 22 1021.2 1021.2 0.2
26/03:30pm 23.1 18.6 16.4 66 4.1 S 35 44 19 24 1021.3 1021.3 0.2
26/03:00pm 23.1 18.7 16.6 67 4.0 S 35 43 19 23 1021.7 1021.7 0.2
26/02:30pm 22.7 18.7 16.3 67 3.9 S 32 39 17 21 1021.9 1021.9 0.2
26/02:00pm 22.7 18.9 16.7 69 3.7 S 32 37 17 20 1022.1 1022.1 0.2
26/01:30pm 23.0 19.8 17.2 70 3.6 S 30 37 16 20 1022.4 1022.4 0.2
26/01:12pm 23.0 19.7 16.1 65 4.2 S 28 48 15 26 1022.5 1022.5 0.2
26/01:00pm 22.7 19.1 15.3 63 4.4 S 28 35 15 19 1022.7 1022.7 0.2
26/12:30pm 22.7 18.6 16.0 66 4.0 S 32 43 17 23 1022.9 1022.9 0.2
26/12:00pm 22.2 18.5 16.0 68 3.7 S 30 48 16 26 1022.9 1022.9 0.2
26/11:30am 22.4 19.0 16.7 70 3.5 S 30 35 16 19 1022.8 1022.8 0.0
26/11:00am 22.0 18.1 15.4 66 3.9 S 30 35 16 19 1022.8 1022.8 0.0
26/10:30am 21.9 18.5 15.7 68 3.7 S 28 35 15 19 1022.9 1022.9 0.0
26/10:00am 22.3 19.0 14.9 63 4.4 SSE 26 35 14 19 1022.6 1022.6 0.0
26/09:30am 21.8 18.8 14.9 65 4.1 SSE 24 32 13 17 1022.2 1022.2 0.0
26/09:00am 21.8 19.4 15.4 67 3.8 SSE 22 30 12 16 1022.0 1022.0 28.2
26/08:30am 21.3 17.9 14.7 66 3.9 SSE 26 32 14 17 1021.5 1021.5 28.2
26/08:00am 21.3 18.1 15.2 68 3.6 SSE 26 33 14 18 1021.2 1021.2 28.2
26/07:30am 20.8 17.3 15.4 71 3.2 SSE 28 33 15 18 1021.0 1021.0 28.2
26/07:00am 20.4 17.4 15.8 75 2.7 SSE 26 35 14 19 1021.0 1021.0 28.2
26/06:30am 20.5 17.8 15.5 73 3.0 SSE 24 30 13 16 1020.7 1020.7 28.2
26/06:00am 20.6 17.7 16.0 75 2.7 SSE 26 35 14 19 1020.4 1020.4 28.2
26/05:30am 20.4 18.0 17.4 83 1.8 SE 26 32 14 17 1020.0 1020.0 28.2
26/05:00am 19.4 18.3 17.2 87 1.3 SSE 19 26 10 14 1020.1 1020.1 28.0
26/04:30am 20.1 17.8 16.7 81 2.1 SSE 24 32 13 17 1019.7 1019.7 27.0
26/04:00am 20.6 16.6 16.8 79 2.3 SE 33 41 18 22 1019.5 1019.5 26.6
26/03:30am 20.0 16.4 17.2 84 1.7 ESE 32 41 17 22 1019.6 1019.6 26.4
26/03:00am 20.4 17.7 16.6 79 2.3 ESE 26 33 14 18 1019.6 1019.6 26.0
26/02:30am 20.0 15.7 16.0 78 2.4 ESE 33 43 18 23 1019.4 1019.4 26.0
26/02:22am 19.6 15.2 16.6 83 1.8 SE 35 46 19 25 1019.5 1019.5 26.0
26/02:11am 19.3 14.8 17.4 89 1.2 SE 37 48 20 26 1019.5 1019.5 25.6
26/02:00am 19.8 16.1 17.4 86 1.5 ESE 33 50 18 27 1019.8 1019.8 24.8
26/01:56am 19.2 16.6 17.9 92 0.8 ESE 28 50 15 27 1019.8 1019.8 24.6
26/01:30am 19.8 19.2 18.8 94 0.6 E 20 33 11 18 1019.9 1019.9 24.6
26/01:25am 19.9 19.6 19.1 95 0.5 E 19 30 10 16 1020.0 1020.0 24.6
26/01:20am 19.8 19.3 19.0 95 0.5 ESE 20 32 11 17 1020.1 1020.1 24.6
26/01:00am 19.4 21.4 19.1 98 0.2 SE 7 13 4 7 1020.3 1020.3 22.6
26/12:43am 19.0 18.2 18.5 97 0.3 SE 20 28 11 15 1020.5 1020.5 11.4
26/12:30am 19.4 18.9 18.7 96 0.4 SE 19 30 10 16 1020.4 1020.4 5.2
26/12:24am 19.4 19.2 18.6 95 0.5 SE 17 20 9 11 1020.4 1020.4 4.8
26/12:00am 19.8 19.2 18.5 92 0.8 SE 19 28 10 15 1020.1 1020.1 4.0
 
Date/Time
EDT
Temp
°C
App
Temp
°C
Dew
Point
°C
Rel
Hum
%
Delta-T
°C
Wind Press
QNH
hPa
Press
MSL
hPa
Rain since
9am
mm
Dir  Spd
km/h
Gust
km/h
Spd
kts
Gust
kts
25/11:30pm 19.9 19.6 18.2 90 1.1 SW 17 19 9 10 1020.4 1020.4 4.0
25/11:00pm 19.7 18.8 18.2 91 0.9 SSW 20 28 11 15 1020.4 1020.4 4.0
25/10:30pm 19.6 18.7 17.7 89 1.2 SW 19 35 10 19 1020.5 1020.5 4.0
25/10:00pm 20.1 18.8 18.1 88 1.2 SSW 22 28 12 15 1020.5 1020.5 3.8
25/09:30pm 19.7 18.6 17.7 88 1.2 SSW 20 26 11 14 1020.3 1020.3 3.8
25/09:00pm 19.6 18.7 17.7 89 1.2 SW 19 26 10 14 1020.3 1020.3 3.8
25/08:30pm 19.6 18.6 17.9 90 1.0 SW 20 26 11 14 1020.3 1020.3 3.8
25/08:00pm 19.9 18.2 18.2 90 1.0 SSW 24 28 13 15 1020.0 1020.0 3.8
25/07:30pm 19.6 18.0 18.4 93 0.7 SSW 24 30 13 16 1020.0 1020.0 3.8
25/07:00pm 19.1 19.4 17.8 92 0.8 SE 13 17 7 9 1020.0 1020.0 2.0
25/06:30pm 19.6 17.4 17.9 90 1.0 SSW 26 33 14 18 1019.4 1019.4 1.2
25/06:12pm 19.4 16.4 17.7 90 1.0 SSW 30 35 16 19 1019.5 1019.5 1.0
25/06:00pm 19.6 16.2 17.7 89 1.2 SSW 32 37 17 20 1019.6 1019.6 1.0
25/05:30pm 19.3 15.8 17.4 89 1.2 SSW 32 39 17 21 1019.8 1019.8 1.0
25/05:05pm 19.4 15.9 17.4 88 1.2 SSW 32 50 17 27 1019.8 1019.8 1.0
25/05:00pm 19.2 15.4 17.2 88 1.2 SSW 33 44 18 24 1019.8 1019.8 1.0
25/04:49pm 19.3 15.9 17.6 90 1.0 SSW 32 41 17 22 1019.9 1019.9 1.0
25/04:30pm 19.5 15.5 17.6 89 1.2 SSW 35 48 19 26 1020.0 1020.0 1.0
25/04:19pm 19.5 15.7 18.0 91 0.9 SSW 35 44 19 24 1020.0 1020.0 1.0
25/04:00pm 19.9 15.9 17.7 87 1.3 SSW 35 46 19 25 1020.0 1020.0 1.0
25/03:54pm 20.1 16.5 17.7 86 1.5 SSW 33 41 18 22 1019.9 1019.9 1.0
25/03:30pm 19.9 16.7 18.2 90 1.1 SSW 32 39 17 21 1019.9 1019.9 1.0
25/03:23pm 19.3 15.9 17.6 90 1.0 SSW 32 43 17 23 1020.0 1020.0 1.0
25/03:00pm 19.3 15.9 17.8 91 0.9 SSW 32 37 17 20 1020.2 1020.2 1.0
25/02:55pm 19.1 16.3 17.4 90 1.0 SSW 28 37 15 20 1020.3 1020.3 1.0
25/02:30pm 19.0 15.9 17.5 91 0.9 S 30 35 16 19 1020.6 1020.6 0.8
25/02:00pm 18.9 15.4 17.4 91 0.9 SSW 32 41 17 22 1020.6 1020.6 0.8
25/01:30pm 19.1 15.3 18.1 94 0.6 SSW 35 43 19 23 1020.9 1020.9 0.8
25/01:14pm 19.0 14.8 18.0 94 0.6 SSW 37 46 20 25 1020.7 1020.7 0.8
25/01:00pm 18.8 14.1 17.8 94 0.6 SSW 39 54 21 29 1020.6 1020.6 0.8
25/12:49pm 18.9 15.1 18.1 95 0.5 SSW 35 46 19 25 1020.8 1020.8 0.8
25/12:30pm 18.8 15.0 18.1 96 0.4 SSW 35 43 19 23 1020.8 1020.8 0.8
25/12:00pm 18.9 15.5 18.2 96 0.4 SSW 33 41 18 22 1021.1 1021.1 0.8
25/11:54am 18.9 15.5 18.2 96 0.4 SSW 33 41 18 22 1021.1 1021.1 0.8
25/11:36am 18.5 15.0 17.9 96 0.4 SSW 33 41 18 22 1021.4 1021.4 0.8
25/11:30am 18.8 15.0 18.1 96 0.4 SSW 35 41 19 22 1021.3 1021.3 0.8
25/11:00am 18.5 15.0 17.9 96 0.4 SSW 33 41 18 22 1021.3 1021.3 0.4
25/10:47am 18.5 15.0 17.9 96 0.4 SSW 33 41 18 22 1021.3 1021.3 0.2
25/10:30am 18.7 14.8 17.9 95 0.5 SSW 35 46 19 25 1021.2 1021.2 0.2
25/10:00am 18.7 14.3 17.5 93 0.7 SSW 37 44 20 24 1020.9 1020.9 0.0
25/09:45am 18.8 14.6 18.0 95 0.5 SSW 37 44 20 24 1020.8 1020.8 0.0
25/09:30am 19.0 15.2 18.2 95 0.5 SSW 35 44 19 24 1020.6 1020.6 0.0
25/09:25am 18.7 14.8 17.9 95 0.5 SSW 35 46 19 25 1020.5 1020.5 0.0
25/09:00am 18.9 14.8 18.2 96 0.4 SSW 37 50 20 27 1020.5 1020.5 1.8
25/08:30am 18.9 14.6 17.9 94 0.6 SSW 37 52 20 28 1020.3 1020.3 1.8
25/08:00am 19.2 15.2 18.5 96 0.4 SSW 37 48 20 26 1020.2 1020.2 1.8
25/07:54am 19.2 14.8 18.4 95 0.5 SSW 39 52 21 28 1020.0 1020.0 1.8
25/07:30am 19.3 14.7 18.8 97 0.3 SSW 41 50 22 27 1019.7 1019.7 1.4
25/07:12am 19.3 15.0 18.6 96 0.4 S 39 50 21 27 1019.6 1019.6 1.4
25/07:00am 19.3 14.7 18.8 97 0.3 S 41 50 22 27 1019.4 1019.4 1.4
25/06:37am 19.1 15.1 18.4 96 0.4 SSW 37 46 20 25 1019.2 1019.2 1.4
25/06:30am 19.1 14.7 18.4 96 0.4 SSW 39 52 21 28 1019.1 1019.1 1.4
25/06:00am 18.9 14.4 18.2 96 0.4 SSW 39 48 21 26 1018.9 1018.9 1.4
25/05:30am 19.2 15.2 18.5 96 0.4 SSW 37 48 20 26 1018.9 1018.9 1.2
25/05:20am 19.1 15.4 18.4 96 0.4 SSW 35 54 19 29 1018.8 1018.8 1.2
25/05:00am 19.1 15.1 18.4 96 0.4 SSW 37 48 20 26 1018.6 1018.6 1.2
25/04:30am 19.1 13.9 18.3 95 0.5 SSW 43 56 23 30 1018.7 1018.7 1.2
25/04:00am 19.5 14.8 18.7 95 0.5 SSW 41 57 22 31 1018.4 1018.4 1.2
25/03:54am 19.2 14.8 18.4 95 0.5 SSW 39 50 21 27 1018.5 1018.5 1.2
25/03:30am 19.6 16.7 18.8 95 0.5 SSW 32 44 17 24 1018.9 1018.9 0.8
25/03:00am 20.3 15.6 18.6 90 1.1 SSW 41 50 22 27 1018.7 1018.7 0.0
25/02:30am 20.5 15.9 18.8 90 1.1 SSW 41 50 22 27 1018.7 1018.7 0.0
25/02:00am 20.7 16.5 18.8 89 1.2 SSW 39 50 21 27 1019.0 1019.0 0.0
25/01:30am 21.0 18.1 18.8 87 1.4 SSW 32 41 17 22 1019.2 1019.2 0.0
25/01:00am 21.3 18.7 18.7 85 1.6 SSW 30 41 16 22 1019.8 1019.8 0.0
25/12:30am 21.6 19.1 19.7 89 1.2 SSW 32 41 17 22 1019.7 1019.7 0.0
25/12:00am 21.6 18.7 19.3 87 1.5 S 33 44 18 24 1019.5 1019.5 0.0
 
Date/Time
EDT
Temp
°C
App
Temp
°C
Dew
Point
°C
Rel
Hum
%
Delta-T
°C
Wind Press
QNH
hPa
Press
MSL
hPa
Rain since
9am
mm
Dir  Spd
km/h
Gust
km/h
Spd
kts
Gust
kts
24/11:44pm 21.7 18.3 19.1 85 1.6 S 35 48 19 26 1019.7 1019.7 0.0
24/11:30pm 22.3 20.6 19.8 86 1.6 SSW 28 33 15 18 1019.5 1019.5 0.0
24/11:06pm 22.3 19.8 19.7 85 1.7 SW 32 37 17 20 1020.0 1020.0 0.0
24/11:00pm 22.4 20.4 19.9 86 1.6 SSW 30 37 16 20 1020.0 1020.0 0.0
24/10:30pm 22.1 20.5 20.0 88 1.3 SSW 28 35 15 19 1020.2 1020.2 0.0
24/10:00pm 21.9 20.8 20.2 90 1.1 SSW 26 30 14 16 1020.1 1020.1 0.0
24/09:30pm 22.3 20.6 19.8 86 1.6 SSW 28 33 15 18 1019.9 1019.9 0.0
24/09:00pm 22.0 20.9 19.5 86 1.6 S 24 30 13 16 1019.5 1019.5 0.0
24/08:30pm 22.0 22.0 20.1 89 1.2 S 20 28 11 15 1019.2 1019.2 0.0
24/08:00pm 22.3 21.1 20.0 87 1.5 SSW 26 32 14 17 1018.8 1018.8 0.0
24/07:30pm 22.4 22.0 20.1 87 1.5 SSW 22 28 12 15 1018.5 1018.5 0.0
24/07:00pm 23.1 21.7 20.4 85 1.7 S 28 32 15 17 1018.4 1018.4 0.0
24/06:30pm 23.3 22.7 20.4 84 1.9 S 24 32 13 17 1018.1 1018.1 0.0
24/06:00pm 23.3 22.2 20.2 83 2.0 S 26 32 14 17 1017.9 1017.9 0.0
24/05:30pm 23.4 21.8 20.0 81 2.2 S 28 35 15 19 1017.9 1017.9 0.0
24/05:00pm 24.6 23.6 19.7 74 3.2 SSE 24 30 13 16 1017.8 1017.8 0.0
24/04:30pm 25.2 25.0 18.6 67 4.2 S 17 24 9 13 1018.2 1018.2 0.0
24/04:00pm 24.2 24.0 19.7 76 2.9 S 20 26 11 14 1018.3 1018.3 0.0
24/03:30pm 23.8 23.2 19.7 78 2.6 S 22 28 12 15 1018.4 1018.4 0.0
24/03:00pm 23.9 22.1 19.6 77 2.8 S 28 33 15 18 1018.7 1018.7 0.0
24/02:30pm 23.9 21.6 19.4 76 2.9 S 30 33 16 18 1018.7 1018.7 0.0
24/02:00pm 23.4 21.1 19.3 78 2.6 S 30 35 16 19 1019.5 1019.5 0.0
24/01:30pm 23.8 22.2 19.1 75 3.0 S 26 33 14 18 1019.7 1019.7 0.0
24/01:00pm 23.3 21.7 19.2 78 2.6 S 26 30 14 16 1020.0 1020.0 0.0
24/12:30pm 22.8 20.7 19.0 79 2.4 S 28 39 15 21 1020.5 1020.5 0.0
24/12:00pm 22.8 21.2 19.2 80 2.3 S 26 33 14 18 1020.7 1020.7 0.0
24/11:30am 23.3 22.5 19.2 78 2.6 S 22 28 12 15 1020.9 1020.9 0.0
24/11:00am 22.5 22.1 18.9 80 2.3 S 19 32 10 17 1021.1 1021.1 0.0
24/10:30am 22.7 21.3 18.9 79 2.4 S 24 32 13 17 1021.3 1021.3 0.0
24/10:00am 22.8 21.7 19.4 81 2.2 S 24 32 13 17 1021.1 1021.1 0.0
24/09:30am 22.8 22.5 19.6 82 2.0 S 20 28 11 15 1021.0 1021.0 0.0
24/09:00am 22.4 22.3 19.6 84 1.8 S 19 26 10 14 1020.8 1020.8 0.0
24/08:30am 22.1 21.8 19.6 86 1.6 S 20 28 11 15 1020.6 1020.6 0.0

Other Formats:

Comma delimited format used in spreadsheet applications
http://www.bom.gov.au/fwo/IDN60801/IDN60801.94767.axf

JavaScript Object Notation format (JSON) in row-major order
http://www.bom.gov.au/fwo/IDN60801/IDN60801.94767.json